Time;durP1;ratioP1;P1;durP2;ratioP2;P2;SDS_P1;SDS_P2;PMS_P1;PMS_P2;Temp;Humidity;BMP_temperature;BMP_pressure;BME280_temperature;BME280_humidity;BME280_pressure;Samples;Min_cycle;Max_cycle;Signal;HPM_P1;HPM_P2
2021/08/06 00:01:54;;;;;;;0.40;0.10;;;;;;;18.31;74.31;98923.30;126509;1090;102953;-68
2021/08/06 00:04:22;;;;;;;0.40;0.10;;;;;;;18.42;73.97;98926.93;126358;1089;114234;-69
2021/08/06 00:06:49;;;;;;;0.40;0.10;;;;;;;18.34;73.88;98925.73;126609;1090;103088;-69
2021/08/06 00:09:17;;;;;;;0.40;0.10;;;;;;;18.26;74.63;98919.25;126559;1089;103023;-69
2021/08/06 00:11:44;;;;;;;0.40;0.10;;;;;;;18.13;75.16;98917.57;126392;1090;114154;-69
2021/08/06 00:14:11;;;;;;;0.40;0.10;;;;;;;18.17;75.08;98926.27;126581;1088;103045;-69
2021/08/06 00:16:38;;;;;;;0.40;0.10;;;;;;;18.20;75.01;98920.62;126477;1089;114075;-69
2021/08/06 00:19:06;;;;;;;0.40;0.10;;;;;;;18.24;74.79;98916.69;126610;1089;103019;-70
2021/08/06 00:21:33;;;;;;;0.40;0.10;;;;;;;18.26;74.96;98913.86;126585;1090;102907;-71
2021/08/06 00:24:00;;;;;;;0.40;0.10;;;;;;;18.29;74.84;98917.17;126465;1092;114040;-69
2021/08/06 00:26:27;;;;;;;0.40;0.10;;;;;;;18.32;74.48;98910.67;126557;1089;103054;-69
2021/08/06 00:28:54;;;;;;;0.40;0.10;;;;;;;18.37;74.81;98898.52;126480;1089;114047;-70
2021/08/06 00:31:21;;;;;;;0.40;0.10;;;;;;;18.34;74.76;98892.52;126533;1088;103019;-70
2021/08/06 00:33:49;;;;;;;0.40;0.10;;;;;;;18.27;74.68;98904.80;126453;1089;114178;-70
2021/08/06 00:36:16;;;;;;;0.40;0.10;;;;;;;18.33;74.67;98897.06;126402;1090;102904;-70
2021/08/06 00:38:43;;;;;;;0.40;0.10;;;;;;;18.35;74.50;98886.15;126580;1089;102906;-70
2021/08/06 00:41:10;;;;;;;0.40;0.10;;;;;;;18.40;74.76;98893.88;126397;1092;113991;-69
2021/08/06 00:43:38;;;;;;;0.40;0.10;;;;;;;18.43;74.56;98882.83;126592;1089;102881;-69
2021/08/06 00:46:05;;;;;;;0.40;0.10;;;;;;;18.42;74.50;98879.28;126334;1089;114403;-69
2021/08/06 00:48:33;;;;;;;0.40;0.10;;;;;;;18.40;74.44;98877.70;126542;1090;104106;-69
2021/08/06 00:51:00;;;;;;;0.40;0.10;;;;;;;18.40;74.45;98869.61;126477;1092;102900;-69
2021/08/06 00:53:28;;;;;;;0.40;0.10;;;;;;;18.33;74.83;98864.72;126457;1090;114015;-70
2021/08/06 00:55:55;;;;;;;0.40;0.10;;;;;;;18.32;75.10;98865.70;126588;1090;103355;-70
2021/08/06 00:58:22;;;;;;;0.40;0.10;;;;;;;18.29;74.86;98857.03;126455;1089;114158;-69
2021/08/06 01:00:50;;;;;;;0.40;0.10;;;;;;;18.30;74.72;98856.90;126658;1090;103005;-69
2021/08/06 01:03:42;;;;;;;0.40;0.10;;;;;;;18.31;74.78;98852.36;126613;1088;102972;-69
2021/08/06 01:06:19;;;;;;;0.40;0.10;;;;;;;18.29;74.75;98848.95;126500;1090;114067;-69
2021/08/06 01:08:51;;;;;;;0.40;0.10;;;;;;;18.27;74.83;98846.36;126646;1089;103025;-69
2021/08/06 01:11:22;;;;;;;0.40;0.10;;;;;;;18.32;74.71;98852.22;126389;1089;113946;-69
2021/08/06 01:13:54;;;;;;;0.40;0.10;;;;;;;18.36;74.53;98847.44;126603;1089;102975;-70
2021/08/06 01:16:27;;;;;;;0.40;0.10;;;;;;;18.34;74.49;98836.79;126713;1090;114168;-69
2021/08/06 01:19:06;;;;;;;0.40;0.10;;;;;;;18.36;74.69;98833.97;126537;1090;102900;-69
2021/08/06 01:21:43;;;;;;;0.40;0.10;;;;;;;18.31;74.54;98823.58;126587;1090;103352;-69
2021/08/06 01:24:12;;;;;;;0.40;0.10;;;;;;;18.32;74.74;98817.19;126503;1090;113798;-69
2021/08/06 01:26:41;;;;;;;0.40;0.10;;;;;;;18.31;74.70;98812.80;126599;1089;103201;-69
2021/08/06 01:29:09;;;;;;;0.40;0.10;;;;;;;18.30;74.71;98813.78;126496;1088;114111;-70
2021/08/06 01:31:36;;;;;;;0.40;0.10;;;;;;;18.20;75.19;98800.20;126640;1090;103380;-69
2021/08/06 01:34:03;;;;;;;0.40;0.10;;;;;;;18.16;75.14;98795.22;126555;1090;114650;-69
2021/08/06 01:36:31;;;;;;;0.40;0.10;;;;;;;18.20;75.12;98796.66;126605;1090;102900;-70
2021/08/06 01:38:58;;;;;;;0.40;0.10;;;;;;;18.19;75.20;98787.73;126618;1088;102958;-69
2021/08/06 01:41:33;;;;;;;0.40;0.10;;;;;;;18.22;75.17;98797.41;126473;1090;113995;-69
2021/08/06 01:44:48;;;;;;;0.40;0.10;;;;;;;18.12;75.14;98786.52;126659;1090;102879;-69
2021/08/06 01:47:20;;;;;;;0.40;0.10;;;;;;;18.10;75.30;98783.13;126522;1090;114089;-69
2021/08/06 01:50:02;;;;;;;0.40;0.10;;;;;;;18.08;75.20;98782.38;126652;1090;102990;-70
2021/08/06 01:52:38;;;;;;;0.40;0.10;;;;;;;18.03;75.46;98779.21;126509;1088;114200;-69
2021/08/06 01:55:08;;;;;;;0.40;0.10;;;;;;;18.07;75.36;98777.13;126671;1090;103702;-69
2021/08/06 01:57:36;;;;;;;0.40;0.10;;;;;;;17.99;75.67;98783.14;126612;1090;102978;-69
2021/08/06 02:00:04;;;;;;;0.40;0.10;;;;;;;18.00;75.77;98774.93;126461;1090;114012;-70
2021/08/06 02:02:32;;;;;;;0.40;0.10;;;;;;;18.03;75.47;98768.44;126573;1090;102882;-69
2021/08/06 02:05:00;;;;;;;0.40;0.10;;;;;;;18.03;75.35;98768.44;126434;1090;114504;-69
2021/08/06 02:07:27;;;;;;;0.40;0.10;;;;;;;18.08;75.13;98766.22;126599;1090;102984;-69
2021/08/06 02:09:55;;;;;;;0.40;0.10;;;;;;;18.10;75.32;98758.88;126461;1090;114271;-70
2021/08/06 02:12:22;;;;;;;0.40;0.10;;;;;;;18.09;74.92;98751.77;126574;1090;102900;-70
2021/08/06 02:14:49;;;;;;;0.40;0.10;;;;;;;18.08;74.96;98747.36;126598;1090;103015;-70
2021/08/06 02:17:18;;;;;;;0.40;0.10;;;;;;;18.05;75.36;98747.63;126456;1089;113951;-70
2021/08/06 02:19:45;;;;;;;0.40;0.10;;;;;;;18.00;75.44;98742.61;126571;1089;102926;-70
2021/08/06 02:22:13;;;;;;;0.40;0.10;;;;;;;17.97;75.25;98742.88;126458;1090;114287;-71
2021/08/06 02:24:43;;;;;;;0.40;0.10;;;;;;;17.93;75.46;98730.65;126595;1090;103036;-72
2021/08/06 02:27:13;;;;;;;0.40;0.10;;;;;;;17.93;75.35;98721.73;126552;1089;103365;-71
2021/08/06 02:29:41;;;;;;;0.40;0.10;;;;;;;17.88;75.60;98722.06;8180;1093;20103339;-70
2021/08/06 02:32:08;;;;;;;0.40;0.10;;;;;;;17.84;75.77;98724.15;126547;1090;103423;-70
2021/08/06 02:34:36;;;;;;;0.40;0.10;;;;;;;17.86;75.84;98707.86;126419;1089;114097;-69
2021/08/06 02:37:03;;;;;;;0.40;0.10;;;;;;;17.93;75.56;98710.95;126552;1092;102952;-69
2021/08/06 02:39:31;;;;;;;0.40;0.10;;;;;;;17.89;75.56;98705.77;126601;1089;102883;-70
2021/08/06 02:42:01;;;;;;;0.40;0.10;;;;;;;17.86;75.48;98699.78;126454;1089;114390;-69
2021/08/06 02:44:28;;;;;;;0.40;0.10;;;;;;;17.82;75.98;98701.90;126597;1090;102952;-69
2021/08/06 02:46:56;;;;;;;0.40;0.10;;;;;;;17.81;75.96;98699.34;126409;1089;113915;-69
2021/08/06 02:49:23;;;;;;;0.40;0.10;;;;;;;17.81;75.91;98700.18;126669;1090;103015;-69
2021/08/06 02:51:50;;;;;;;0.40;0.10;;;;;;;17.84;75.61;98705.30;126513;1090;102959;-70
2021/08/06 02:54:17;;;;;;;0.40;0.10;;;;;;;17.86;75.54;98703.34;126502;1089;113757;-69
2021/08/06 02:56:44;;;;;;;0.40;0.10;;;;;;;17.81;75.54;98700.18;126633;1090;103016;-70
2021/08/06 02:59:11;;;;;;;0.40;0.10;;;;;;;17.78;75.71;98695.06;126473;1090;114085;-70
2021/08/06 03:01:39;;;;;;;0.40;0.10;;;;;;;17.80;75.61;98697.63;126645;1088;102875;-69
2021/08/06 03:04:06;;;;;;;0.40;0.10;;;;;;;17.78;75.92;98691.50;126494;1090;114288;-69
2021/08/06 03:06:33;;;;;;;0.40;0.10;;;;;;;17.79;75.70;98685.98;126593;1090;103020;-70
2021/08/06 03:09:01;;;;;;;0.40;0.10;;;;;;;17.85;75.60;98692.70;126661;1089;102878;-70
2021/08/06 03:11:28;;;;;;;0.40;0.10;;;;;;;17.88;75.51;98681.67;126501;1089;113940;-71
2021/08/06 03:13:55;;;;;;;0.40;0.10;;;;;;;17.90;75.27;98677.02;126620;1090;103115;-70
2021/08/06 03:16:22;;;;;;;0.40;0.10;;;;;;;17.90;75.32;98682.41;126415;1093;114082;-69
2021/08/06 03:18:49;;;;;;;0.40;0.10;;;;;;;17.85;75.49;98677.39;126597;1090;102982;-70
2021/08/06 03:21:17;;;;;;;0.40;0.10;;;;;;;17.87;74.93;98674.56;126576;1090;102883;-70
2021/08/06 03:23:44;;;;;;;0.40;0.10;;;;;;;17.91;75.09;98669.78;126475;1089;113901;-70
2021/08/06 03:26:11;;;;;;;0.40;0.10;;;;;;;17.86;74.97;98684.49;126582;1090;102926;-69
2021/08/06 03:28:38;;;;;;;0.40;0.10;;;;;;;17.76;75.58;98675.47;126485;1090;114165;-70
2021/08/06 03:31:06;;;;;;;0.40;0.10;;;;;;;17.73;75.32;98678.44;126638;1090;102910;-70
2021/08/06 03:33:33;;;;;;;0.40;0.10;;;;;;;17.78;75.01;98676.21;126540;1089;103041;-70
2021/08/06 03:36:00;;;;;;;0.40;0.10;;;;;;;17.75;74.91;98676.45;126558;1090;113956;-70
2021/08/06 03:38:27;;;;;;;0.40;0.10;;;;;;;17.77;75.11;98679.88;126572;1089;103025;-71
2021/08/06 03:40:55;;;;;;;0.40;0.10;;;;;;;17.75;75.05;98686.38;126455;1088;114113;-70
2021/08/06 03:43:22;;;;;;;0.40;0.10;;;;;;;17.74;74.98;98681.97;126627;1090;102872;-70
2021/08/06 03:45:49;;;;;;;0.40;0.10;;;;;;;17.68;75.41;98675.27;126524;1090;102871;-71
2021/08/06 03:48:16;;;;;;;0.40;0.10;;;;;;;17.68;75.06;98668.03;126530;1090;113798;-71
2021/08/06 03:50:43;;;;;;;0.40;0.10;;;;;;;17.64;74.93;98668.43;126548;1089;102897;-70
2021/08/06 03:53:10;;;;;;;0.40;0.10;;;;;;;17.64;75.07;98655.81;126447;1089;114105;-71
2021/08/06 03:55:38;;;;;;;0.40;0.10;;;;;;;17.64;75.17;98663.89;126583;1090;102876;-70
2021/08/06 03:58:05;;;;;;;0.40;0.10;;;;;;;17.62;75.29;98655.11;126469;1089;114095;-70
2021/08/06 04:00:35;;;;;;;0.40;0.10;;;;;;;17.61;75.28;98668.70;126672;1088;102929;-71
2021/08/06 04:03:02;;;;;;;0.40;0.10;;;;;;;17.55;75.81;98654.77;126536;1090;102968;-70
2021/08/06 04:05:29;;;;;;;0.40;0.10;;;;;;;17.56;75.56;98658.30;126472;1090;114362;-70
2021/08/06 04:07:56;;;;;;;0.40;0.10;;;;;;;17.61;75.34;98661.47;126633;1089;102970;-71
2021/08/06 04:10:23;;;;;;;0.40;0.10;;;;;;;17.60;75.27;98662.44;126395;1090;114691;-71
2021/08/06 04:12:51;;;;;;;0.40;0.10;;;;;;;17.59;75.20;98652.65;126567;1090;102921;-71
2021/08/06 04:15:18;;;;;;;0.40;0.10;;;;;;;17.57;75.18;98659.14;126583;1089;102907;-70
2021/08/06 04:17:46;;;;;;;0.40;0.10;;;;;;;17.53;75.33;98651.33;126466;1090;113920;-70
2021/08/06 04:20:14;;;;;;;0.40;0.10;;;;;;;17.57;75.35;98651.06;126589;1090;104183;-71
2021/08/06 04:22:41;;;;;;;0.40;0.10;;;;;;;17.60;75.29;98650.83;126454;1090;113914;-71
2021/08/06 04:25:11;;;;;;;0.40;0.10;;;;;;;17.66;74.92;98653.86;126598;1090;103013;-71
2021/08/06 04:27:39;;;;;;;0.40;0.20;;;;;;;17.65;75.13;98646.77;126589;1090;102900;-71
2021/08/06 04:30:08;;;;;;;0.40;0.10;;;;;;;17.60;75.07;98634.68;126487;1088;113899;-71
2021/08/06 04:32:35;;;;;;;0.40;0.10;;;;;;;17.64;75.09;98636.97;126651;1090;103285;-71
2021/08/06 04:35:04;;;;;;;0.40;0.10;;;;;;;17.56;75.12;98636.77;126504;1089;113899;-70
2021/08/06 04:37:31;;;;;;;0.40;0.20;;;;;;;17.52;75.38;98638.84;126656;1088;103377;-71
2021/08/06 04:39:58;;;;;;;0.40;0.10;;;;;;;17.52;75.29;98632.63;126447;1089;114122;-71
2021/08/06 04:42:25;;;;;;;0.40;0.10;;;;;;;17.49;75.29;98625.66;126582;1090;102952;-71
2021/08/06 04:44:52;;;;;;;0.40;0.10;;;;;;;17.49;75.56;98628.34;126615;1090;103352;-70
2021/08/06 04:47:19;;;;;;;0.40;0.10;;;;;;;17.51;75.72;98622.83;126422;1089;113911;-71
2021/08/06 04:49:47;;;;;;;0.40;0.10;;;;;;;17.52;75.37;98622.70;126636;1090;103080;-71
2021/08/06 04:52:14;;;;;;;0.40;0.10;;;;;;;17.52;75.09;98621.86;126398;1090;114126;-71
2021/08/06 04:54:41;;;;;;;0.40;0.10;;;;;;;17.57;74.76;98624.15;126654;1090;102927;-71
2021/08/06 04:57:08;;;;;;;0.40;0.10;;;;;;;17.57;74.90;98624.15;126656;1089;102977;-71
2021/08/06 04:59:35;;;;;;;0.40;0.10;;;;;;;17.54;74.83;98617.22;126473;1090;113912;-71
2021/08/06 05:02:03;;;;;;;0.40;0.10;;;;;;;17.53;75.03;98620.88;126589;1090;102894;-70
2021/08/06 05:04:30;;;;;;;0.40;0.10;;;;;;;17.58;75.10;98613.28;126415;1090;114160;-70
2021/08/06 05:06:57;;;;;;;0.40;0.10;;;;;;;17.61;74.84;98617.55;126602;1090;102968;-71
2021/08/06 05:09:24;;;;;;;0.40;0.10;;;;;;;17.57;74.64;98618.77;126561;1090;102887;-72
2021/08/06 05:11:52;;;;;;;0.40;0.10;;;;;;;17.55;74.89;98611.70;126425;1089;114102;-71
2021/08/06 05:14:19;;;;;;;0.40;0.10;;;;;;;17.57;74.72;98614.25;126590;1089;103044;-71
2021/08/06 05:16:46;;;;;;;0.40;0.10;;;;;;;17.55;74.68;98619.77;126476;1089;113923;-72
2021/08/06 05:19:13;;;;;;;0.40;0.10;;;;;;;17.55;75.03;98617.08;126575;1090;102890;-72
2021/08/06 05:21:40;;;;;;;0.40;0.10;;;;;;;17.58;75.01;98625.86;126639;1089;102932;-72
2021/08/06 05:24:07;;;;;;;0.40;0.10;;;;;;;17.62;74.90;98624.63;126460;1090;113947;-74
2021/08/06 05:26:35;;;;;;;0.40;0.10;;;;;;;17.63;74.72;98619.10;126554;1090;102909;-72
2021/08/06 05:29:04;;;;;;;0.40;0.10;;;;;;;17.64;74.54;98628.05;126478;1089;113912;-72
2021/08/06 05:31:31;;;;;;;0.40;0.10;;;;;;;17.70;74.70;98624.82;126607;1090;103118;-72
2021/08/06 05:33:58;;;;;;;0.40;0.10;;;;;;;17.68;74.20;98619.57;126412;1089;114088;-75
2021/08/06 05:36:25;;;;;;;0.40;0.10;;;;;;;17.71;74.48;98621.16;126599;1089;102919;-75
2021/08/06 05:38:53;;;;;;;0.40;0.10;;;;;;;17.72;74.22;98618.33;126571;1090;102946;-75
2021/08/06 05:41:20;;;;;;;0.40;0.10;;;;;;;17.73;74.27;98624.58;126444;1090;113916;-75
2021/08/06 05:43:48;;;;;;;0.40;0.10;;;;;;;17.75;74.02;98627.98;126570;1090;102932;-75
2021/08/06 05:46:16;;;;;;;0.40;0.10;;;;;;;17.77;73.94;98622.50;126420;1090;114203;-75
2021/08/06 05:48:43;;;;;;;0.40;0.10;;;;;;;17.67;73.94;98620.58;126588;1088;102916;-75
2021/08/06 05:51:10;;;;;;;0.40;0.10;;;;;;;17.69;74.31;98620.45;126543;1093;103250;-75
2021/08/06 05:53:37;;;;;;;0.40;0.10;;;;;;;17.70;73.95;98619.44;126445;1090;113996;-75
2021/08/06 05:56:05;;;;;;;0.40;0.10;;;;;;;17.68;74.13;98616.03;126577;1088;102897;-76
2021/08/06 05:58:32;;;;;;;0.40;0.10;;;;;;;17.66;74.12;98618.86;126477;1088;114096;-75
2021/08/06 06:01:01;;;;;;;0.40;0.10;;;;;;;17.64;74.17;98617.28;126601;1090;102921;-75
2021/08/06 06:03:28;;;;;;;0.40;0.10;;;;;;;17.63;74.27;98618.26;126586;1090;103077;-77
2021/08/06 06:06:01;;;;;;;0.40;0.10;;;;;;;17.61;74.34;98613.01;126486;1090;113928;-77
2021/08/06 06:08:28;;;;;;;0.40;0.10;;;;;;;17.64;74.23;98617.28;126568;1089;102876;-76
2021/08/06 06:10:55;;;;;;;0.40;0.10;;;;;;;17.61;74.24;98609.48;126428;1090;113969;-76
2021/08/06 06:13:22;;;;;;;0.40;0.10;;;;;;;17.59;74.39;98620.34;126561;1090;103119;-76
2021/08/06 06:15:49;;;;;;;0.40;0.10;;;;;;;17.68;74.35;98613.34;126558;1090;103112;-77
2021/08/06 06:18:17;;;;;;;0.40;0.10;;;;;;;17.69;74.14;98617.75;126486;1090;113773;-77
2021/08/06 06:20:44;;;;;;;0.40;0.10;;;;;;;17.66;74.06;98618.86;126630;1089;103170;-77
2021/08/06 06:23:13;;;;;;;0.40;0.10;;;;;;;17.66;73.96;98604.53;126435;1090;113965;-76
2021/08/06 06:25:40;;;;;;;0.40;0.10;;;;;;;17.68;74.03;98624.11;126635;1090;104113;-77
2021/08/06 06:28:08;;;;;;;0.40;0.10;;;;;;;17.70;73.79;98625.70;126411;1090;114150;-76
2021/08/06 06:30:36;;;;;;;0.40;0.10;;;;;;;17.71;73.89;98627.41;126579;1090;103019;-77
2021/08/06 06:33:04;;;;;;;0.40;0.10;;;;;;;17.76;73.85;98628.86;126582;1090;102888;-77
2021/08/06 06:35:32;;;;;;;0.40;0.10;;;;;;;17.77;74.02;98627.88;126450;1090;114466;-76
2021/08/06 06:37:59;;;;;;;0.40;0.10;;;;;;;17.76;73.71;98628.86;126624;1090;102994;-76
2021/08/06 06:40:28;;;;;;;0.40;0.10;;;;;;;17.81;73.66;98629.33;126465;1090;114137;-76
2021/08/06 06:42:56;;;;;;;0.40;0.10;;;;;;;17.83;73.88;98622.83;126601;1090;103412;-76
2021/08/06 06:45:23;;;;;;;0.40;0.10;;;;;;;17.86;73.75;98627.94;126565;1090;103438;-75
2021/08/06 06:47:52;;;;;;;0.40;0.10;;;;;;;17.87;73.32;98624.27;126506;1090;114179;-75
2021/08/06 06:50:25;;;;;;;0.40;0.10;;;;;;;17.83;73.31;98625.52;126602;1090;103941;-76
2021/08/06 06:52:53;;;;;;;0.40;0.10;;;;;;;17.72;73.55;98634.48;126411;1090;113965;-75
2021/08/06 06:55:20;;;;;;;0.40;0.10;;;;;;;17.67;73.63;98634.05;126593;1090;102904;-76
2021/08/06 06:57:53;;;;;;;0.40;0.10;;;;;;;17.64;73.84;98628.05;126539;1090;102903;-76
2021/08/06 07:00:23;;;;;;;0.40;0.10;;;;;;;17.69;73.79;98634.75;126415;1090;113843;-75
2021/08/06 07:02:50;;;;;;;0.40;0.10;;;;;;;17.67;73.80;98630.47;126532;1090;102971;-76
2021/08/06 07:05:19;;;;;;;0.40;0.10;;;;;;;17.69;74.00;98632.05;126384;1090;114027;-75
2021/08/06 07:07:46;;;;;;;0.40;0.10;;;;;;;17.68;73.93;98635.72;126563;1090;102925;-76
2021/08/06 07:10:14;;;;;;;0.40;0.10;;;;;;;17.69;74.02;98639.29;126407;1090;114111;-75
2021/08/06 07:12:42;;;;;;;0.40;0.10;;;;;;;17.65;73.83;98633.30;126526;1090;102911;-76
2021/08/06 07:15:11;;;;;;;0.40;0.10;;;;;;;17.59;73.87;98641.88;126583;1091;102900;-74
2021/08/06 07:17:39;;;;;;;0.40;0.10;;;;;;;17.52;74.11;98638.84;126413;1090;114015;-74
2021/08/06 07:20:09;;;;;;;0.40;0.10;;;;;;;17.53;74.12;98642.41;126652;1093;102874;-75
2021/08/06 07:22:36;;;;;;;0.40;0.10;;;;;;;17.53;74.26;98643.26;126451;1090;114562;-76
2021/08/06 07:25:06;;;;;;;0.40;0.10;;;;;;;17.54;74.49;98647.66;126498;1090;103097;-76
2021/08/06 07:27:34;;;;;;;0.40;0.10;;;;;;;17.53;74.13;98639.72;126581;1091;102965;-75
2021/08/06 07:30:02;;;;;;;0.40;0.10;;;;;;;17.50;73.91;98648.91;126425;1090;114034;-75
2021/08/06 07:32:29;;;;;;;0.40;0.10;;;;;;;17.46;74.41;98651.96;126559;1090;102952;-75
2021/08/06 07:34:57;;;;;;;0.40;0.10;;;;;;;17.48;74.32;98645.47;126345;1090;113937;-75
2021/08/06 07:37:24;;;;;;;0.40;0.10;;;;;;;17.47;74.26;98650.98;126119;1090;102957;-75
2021/08/06 07:39:52;;;;;;;0.40;0.10;;;;;;;17.47;74.67;98650.98;126153;1090;102986;-75
2021/08/06 07:42:19;;;;;;;0.40;0.10;;;;;;;17.48;74.84;98645.47;126007;1088;113829;-76
2021/08/06 07:44:47;;;;;;;0.40;0.10;;;;;;;17.52;74.81;98640.70;126121;1090;102950;-74
2021/08/06 07:47:14;;;;;;;0.40;0.10;;;;;;;17.63;74.97;98647.88;125971;1090;113935;-74
2021/08/06 07:49:42;;;;;;;0.40;0.10;;;;;;;17.65;74.40;98640.53;126163;1088;102958;-74
2021/08/06 07:52:11;;;;;;;0.40;0.10;;;;;;;17.65;74.47;98648.61;126015;1090;114085;-75
2021/08/06 07:54:38;;;;;;;0.40;0.10;;;;;;;17.63;74.25;98647.88;126430;1090;104276;-75
2021/08/06 07:57:06;;;;;;;0.40;0.10;;;;;;;17.63;74.48;98640.64;126449;1090;103065;-76
2021/08/06 07:59:33;;;;;;;0.40;0.10;;;;;;;17.62;74.34;98646.16;126335;1090;114846;-76
2021/08/06 08:02:00;;;;;;;0.40;0.10;;;;;;;17.65;74.14;98645.92;126188;1090;102887;-77
2021/08/06 08:04:28;;;;;;;0.40;0.10;;;;;;;17.69;74.11;98658.98;126067;1090;114311;-76
2021/08/06 08:06:55;;;;;;;0.40;0.10;;;;;;;17.74;74.54;98645.14;126189;1088;102962;-74
2021/08/06 08:09:22;;;;;;;0.40;0.10;;;;;;;17.79;73.69;98644.74;126103;1093;103438;-73
2021/08/06 08:11:49;;;;;;;0.40;0.10;;;;;;;17.81;73.68;98649.02;125995;1090;114002;-75
2021/08/06 08:14:16;;;;;;;0.40;0.10;;;;;;;17.86;73.99;98643.23;126184;1093;103042;-74
2021/08/06 08:16:44;;;;;;;0.40;0.10;;;;;;;17.94;73.74;98651.56;126133;1088;114031;-74
2021/08/06 08:19:11;;;;;;;0.40;0.10;;;;;;;17.96;73.62;98654.97;126213;1088;102914;-73
2021/08/06 08:21:38;;;;;;;0.40;0.10;;;;;;;17.99;73.77;98651.16;126126;1089;103062;-73
2021/08/06 08:24:07;;;;;;;0.40;0.10;;;;;;;18.02;73.39;98651.77;126165;1090;114017;-74
2021/08/06 08:26:34;;;;;;;0.40;0.10;;;;;;;18.02;73.32;98642.80;126243;1090;103055;-74
2021/08/06 08:29:02;;;;;;;0.40;0.10;;;;;;;18.04;73.42;98643.54;126064;1090;113941;-74
2021/08/06 08:31:29;;;;;;;0.40;0.10;;;;;;;18.04;72.95;98647.08;126258;1088;102955;-74
2021/08/06 08:33:57;;;;;;;0.40;0.10;;;;;;;18.01;73.14;98641.97;126250;1088;103067;-75
2021/08/06 08:36:24;;;;;;;0.40;0.10;;;;;;;17.97;73.29;98639.67;126082;1090;113934;-74
2021/08/06 08:38:51;;;;;;;0.40;0.10;;;;;;;17.94;73.13;98646.18;126094;1090;102909;-74
2021/08/06 08:41:18;;;;;;;0.40;0.10;;;;;;;17.92;73.09;98653.52;126033;1090;114148;-74
2021/08/06 08:43:45;;;;;;;0.40;0.10;;;;;;;17.89;73.24;98651.06;126301;1088;103112;-74
2021/08/06 08:46:13;;;;;;;0.40;0.10;;;;;;;17.86;73.11;98656.69;126167;1090;114065;-74
2021/08/06 08:48:40;;;;;;;0.40;0.10;;;;;;;17.83;73.60;98656.96;126291;1089;102929;-74
2021/08/06 08:51:07;;;;;;;0.40;0.10;;;;;;;17.89;73.57;98653.76;126273;1090;102969;-75
2021/08/06 08:53:35;;;;;;;0.40;0.10;;;;;;;17.87;73.41;98651.20;126146;1090;114095;-75
2021/08/06 08:56:03;;;;;;;0.40;0.10;;;;;;;17.80;73.27;98660.77;126242;1090;102994;-74
2021/08/06 08:58:30;;;;;;;0.40;0.10;;;;;;;17.78;73.23;98662.75;126151;1090;114159;-74
2021/08/06 09:00:57;;;;;;;0.40;0.10;;;;;;;17.76;73.71;98661.16;126231;1090;102969;-75
2021/08/06 09:03:37;;;;;;;0.40;0.10;;;;;;;17.77;73.62;98660.19;126203;1090;102892;-75
2021/08/06 09:06:05;;;;;;;0.40;0.10;;;;;;;17.76;73.87;98658.47;126152;1090;113924;-74
2021/08/06 09:08:32;;;;;;;0.40;0.10;;;;;;;17.80;73.83;98655.38;126345;1090;102959;-75
2021/08/06 09:10:59;;;;;;;0.40;0.10;;;;;;;17.81;73.71;98656.25;126211;1090;113881;-75
2021/08/06 09:13:27;;;;;;;0.40;0.10;;;;;;;17.76;73.70;98659.31;126173;1090;103370;-74
2021/08/06 09:15:59;;;;;;;0.40;0.10;;;;;;;17.81;73.59;98661.64;126138;1090;103944;-74
2021/08/06 09:18:35;;;;;;;0.40;0.10;;;;;;;17.79;73.72;98663.59;126053;1090;115028;-74
2021/08/06 09:21:05;;;;;;;0.40;0.10;;;;;;;17.78;73.75;98660.06;126118;1090;103079;-75
2021/08/06 09:23:52;;;;;;;0.40;0.10;;;;;;;17.72;73.59;98668.64;126165;1090;113999;-74
2021/08/06 09:26:26;;;;;;;0.40;0.10;;;;;;;17.70;73.85;98671.47;126463;1089;103036;-74
2021/08/06 09:29:18;;;;;;;0.40;0.10;;;;;;;17.75;73.95;98673.76;126432;1090;114271;-76
2021/08/06 09:31:51;;;;;;;0.40;0.10;;;;;;;17.78;73.97;98672.64;126426;1092;102990;-76
2021/08/06 09:34:24;;;;;;;0.40;0.10;;;;;;;17.76;73.69;98672.78;126370;1088;114083;-75
2021/08/06 09:36:59;;;;;;;0.40;0.10;;;;;;;17.78;73.89;98673.52;126548;1089;102874;-77
2021/08/06 09:39:31;;;;;;;0.40;0.10;;;;;;;17.72;73.64;98682.10;126483;1090;102978;-75
2021/08/06 09:42:14;;;;;;;0.40;0.10;;;;;;;17.64;73.93;98682.73;126400;1092;114033;-75
2021/08/06 09:44:41;;;;;;;0.40;0.10;;;;;;;17.59;74.09;98690.34;126510;1090;102991;-75
2021/08/06 09:47:19;;;;;;;0.40;0.10;;;;;;;17.60;74.21;98689.36;126380;1090;114472;-76
2021/08/06 09:49:49;;;;;;;0.40;0.10;;;;;;;17.66;74.28;98685.30;126459;1090;102919;-75
2021/08/06 09:52:16;;;;;;;0.40;0.10;;;;;;;17.67;74.10;98687.88;126383;1090;114155;-75
2021/08/06 09:54:51;;;;;;;0.40;0.10;;;;;;;17.67;74.16;98687.88;126525;1092;102986;-76
2021/08/06 09:57:20;;;;;;;0.40;0.10;;;;;;;17.68;73.94;98686.88;126558;1088;103062;-76
2021/08/06 10:00:14;;;;;;;0.40;0.10;;;;;;;17.64;73.99;98684.59;126437;1090;114042;-76
2021/08/06 10:02:43;;;;;;;0.40;0.10;;;;;;;17.65;74.40;98697.07;126524;1093;102990;-75
2021/08/06 10:05:13;;;;;;;0.40;0.10;;;;;;;17.66;73.85;98687.98;126425;1093;114265;-75
2021/08/06 10:07:44;;;;;;;0.40;0.10;;;;;;;17.59;74.09;98697.56;126467;1092;103075;-74
2021/08/06 10:10:15;;;;;;;0.40;0.10;;;;;;;17.63;74.53;98696.33;126466;1093;114117;-75
2021/08/06 10:12:43;;;;;;;0.40;0.10;;;;;;;17.66;74.00;98705.02;126487;1092;103017;-73
2021/08/06 10:15:12;;;;;;;0.40;0.10;;;;;;;17.67;74.37;98705.86;126609;1090;102905;-75
2021/08/06 10:17:39;;;;;;;0.40;0.10;;;;;;;17.61;74.08;98707.23;126505;1092;113936;-76
2021/08/06 10:20:10;;;;;;;0.40;0.10;;;;;;;17.60;74.18;98710.89;126457;1092;102941;-76
2021/08/06 10:22:37;;;;;;;0.40;0.10;;;;;;;17.60;74.26;98712.75;126457;1092;114473;-74
2021/08/06 10:25:07;;;;;;;0.40;0.10;;;;;;;17.55;74.01;98713.11;126432;1093;102979;-74
2021/08/06 10:27:37;;;;;;;0.40;0.10;;;;;;;17.50;74.41;98715.31;126520;1092;103434;-74
2021/08/06 10:30:10;;;;;;;0.40;0.10;;;;;;;17.47;74.44;98713.73;126485;1090;114020;-75
2021/08/06 10:32:39;;;;;;;0.40;0.10;;;;;;;17.49;74.73;98711.78;126536;1089;103020;-75
2021/08/06 10:35:18;;;;;;;0.40;0.10;;;;;;;17.50;74.49;98712.63;126430;1090;113999;-75
2021/08/06 10:37:53;;;;;;;0.40;0.10;;;;;;;17.50;74.25;98710.81;126417;1090;103023;-74
2021/08/06 10:40:40;;;;;;;0.40;0.10;;;;;;;17.48;74.15;98711.91;126399;1090;114096;-75
2021/08/06 10:43:11;;;;;;;0.40;0.10;;;;;;;17.52;74.22;98716.06;126329;1090;102893;-74
2021/08/06 10:45:47;;;;;;;0.40;0.10;;;;;;;17.48;74.01;98719.99;126475;1090;102997;-74
2021/08/06 10:48:44;;;;;;;0.40;0.10;;;;;;;17.49;74.18;98722.55;126345;1090;113904;-74
2021/08/06 10:51:17;;;;;;;0.40;0.10;;;;;;;17.48;74.08;98714.61;126427;1090;103034;-75
2021/08/06 10:53:54;;;;;;;0.40;0.10;;;;;;;17.43;74.31;98725.73;126414;1090;113937;-73
2021/08/06 10:56:24;;;;;;;0.40;0.10;;;;;;;17.49;74.18;98738.70;126550;1088;103167;-73
2021/08/06 10:58:52;;;;;;;0.40;0.10;;;;;;;17.46;74.20;98725.50;126284;1092;113957;-72
2021/08/06 11:01:30;;;;;;;0.40;0.10;;;;;;;17.45;74.16;98731.02;126568;1090;102888;-76
2021/08/06 11:04:13;;;;;;;0.40;0.10;;;;;;;17.36;74.14;98720.00;126511;1090;103409;-75
2021/08/06 11:07:09;;;;;;;0.40;0.10;;;;;;;17.43;74.37;98731.11;126354;1093;113742;-70
2021/08/06 11:09:36;;;;;;;0.40;0.10;;;;;;;17.46;73.81;98735.39;126235;1093;102985;-75
2021/08/06 11:12:06;;;;;;;0.40;0.10;;;;;;;17.40;73.56;98725.99;126380;1093;114039;-75
2021/08/06 11:14:39;;;;;;;0.40;0.10;;;;;;;17.38;73.63;98730.66;126386;1090;103560;-75
2021/08/06 11:17:16;;;;;;;0.40;0.10;;;;;;;17.40;73.72;98734.06;126391;1090;113909;-75
2021/08/06 11:19:50;;;;;;;0.40;0.20;;;;;;;17.36;73.74;98740.68;126534;1090;102898;-75
2021/08/06 11:22:34;;;;;;;0.40;0.10;;;;;;;17.28;73.68;98729.69;126483;1088;114143;-76
2021/08/06 11:25:07;;;;;;;0.40;0.10;;;;;;;17.23;74.10;98743.50;126493;1090;103474;-74
2021/08/06 11:27:39;;;;;;;0.40;0.10;;;;;;;17.21;73.51;98738.25;126516;1088;103043;-74